Time;durP1;ratioP1;P1;durP2;ratioP2;P2;SDS_P1;SDS_P2;PMS_P1;PMS_P2;Temp;Humidity;BMP_temperature;BMP_pressure;BME280_temperature;BME280_humidity;BME280_pressure;Samples;Min_cycle;Max_cycle;Signal;HPM_P1;HPM_P2
2022/07/05 00:00:35;;;;;;;;;;;18.80;99.90;;;;;;4590190;19;20333;-32
2022/07/05 00:02:13;;;;;;;;;;;18.80;99.90;;;;;;4591069;19;19918;-31
2022/07/05 00:03:44;;;;;;;;;;;18.80;99.90;;;;;;4590812;19;19922;-31
2022/07/05 00:05:15;;;;;;;;;;;18.80;99.90;;;;;;4590974;19;19932;-30
2022/07/05 00:08:35;;;;;;;;;;;18.80;99.90;;;;;;4590449;19;19918;-31
2022/07/05 00:10:07;;;;;;;;;;;18.80;99.90;;;;;;4591078;19;19915;-31
2022/07/05 00:11:38;;;;;;;;;;;18.70;99.90;;;;;;4590986;19;20006;-31
2022/07/05 00:13:09;;;;;;;;;;;18.80;99.90;;;;;;4590886;19;19938;-30
2022/07/05 00:14:40;;;;;;;;;;;18.70;99.90;;;;;;4590626;19;20246;-32
2022/07/05 00:16:11;;;;;;;;;;;18.70;99.90;;;;;;4590201;19;19919;-31
2022/07/05 00:17:42;;;;;;;;;;;18.70;99.90;;;;;;4591144;19;19915;-31
2022/07/05 00:19:13;;;;;;;;;;;18.70;99.90;;;;;;4591286;19;19919;-31
2022/07/05 00:20:45;;;;;;;;;;;18.70;99.90;;;;;;4590768;19;20314;-31
2022/07/05 00:22:16;;;;;;;;;;;18.70;99.90;;;;;;4590966;19;19922;-30
2022/07/05 00:23:47;;;;;;;;;;;18.60;99.90;;;;;;4590316;19;19952;-31
2022/07/05 00:25:18;;;;;;;;;;;18.70;99.90;;;;;;4590430;19;20241;-31
2022/07/05 00:26:49;;;;;;;;;;;18.70;99.90;;;;;;4590683;19;20230;-31
2022/07/05 00:28:20;;;;;;;;;;;18.60;99.90;;;;;;4590893;19;19919;-31
2022/07/05 00:29:51;;;;;;;;;;;18.60;99.90;;;;;;4591071;19;19915;-31
2022/07/05 00:31:22;;;;;;;;;;;18.60;99.90;;;;;;4589400;19;20353;-31
2022/07/05 00:32:53;;;;;;;;;;;18.60;99.90;;;;;;4590214;19;19930;-31
2022/07/05 00:34:24;;;;;;;;;;;18.60;99.90;;;;;;4588160;19;20091;-32
2022/07/05 00:35:55;;;;;;;;;;;18.60;99.90;;;;;;4589569;19;19925;-31
2022/07/05 00:37:26;;;;;;;;;;;18.60;99.90;;;;;;4590433;19;20240;-31
2022/07/05 00:38:57;;;;;;;;;;;18.60;99.90;;;;;;4590455;19;19911;-31
2022/07/05 00:40:28;;;;;;;;;;;18.60;99.90;;;;;;4590886;19;19978;-31
2022/07/05 00:42:00;;;;;;;;;;;18.60;99.90;;;;;;4591979;19;19911;-32
2022/07/05 00:43:31;;;;;;;;;;;18.60;99.90;;;;;;4594716;19;19926;-31
2022/07/05 00:45:03;;;;;;;;;;;18.60;99.90;;;;;;4594979;19;19922;-31
2022/07/05 00:46:35;;;;;;;;;;;18.60;99.90;;;;;;4595404;19;19919;-31
2022/07/05 00:48:06;;;;;;;;;;;18.60;99.90;;;;;;4594734;19;19923;-32
2022/07/05 00:49:37;;;;;;;;;;;18.60;99.90;;;;;;4594731;19;19907;-31
2022/07/05 00:51:08;;;;;;;;;;;18.60;99.90;;;;;;4595001;19;19966;-31
2022/07/05 00:52:39;;;;;;;;;;;18.60;99.90;;;;;;4592455;19;19948;-31
2022/07/05 00:54:10;;;;;;;;;;;18.60;99.90;;;;;;4594554;19;19919;-31
2022/07/05 00:55:40;;;;;;;;;;;18.60;99.90;;;;;;4595167;19;19926;-33
2022/07/05 00:57:11;;;;;;;;;;;18.50;99.90;;;;;;4594017;19;19914;-32
2022/07/05 00:58:43;;;;;;;;;;;18.50;99.90;;;;;;4593405;19;19919;-31
2022/07/05 01:00:14;;;;;;;;;;;18.50;99.90;;;;;;4594243;19;19922;-31
2022/07/05 01:01:45;;;;;;;;;;;18.50;99.90;;;;;;4593429;19;19925;-31
2022/07/05 01:03:15;;;;;;;;;;;18.50;99.90;;;;;;4594171;19;19915;-31
2022/07/05 01:04:48;;;;;;;;;;;18.50;99.90;;;;;;4592793;19;19915;-30
2022/07/05 01:06:19;;;;;;;;;;;18.50;99.90;;;;;;4594771;19;19918;-32
2022/07/05 01:07:50;;;;;;;;;;;18.50;99.90;;;;;;4593919;19;19914;-31
2022/07/05 01:09:21;;;;;;;;;;;18.50;99.90;;;;;;4594049;19;20002;-31
2022/07/05 01:10:53;;;;;;;;;;;18.50;99.90;;;;;;4594372;19;19923;-31
2022/07/05 01:12:24;;;;;;;;;;;18.50;99.90;;;;;;4594325;19;20386;-32
2022/07/05 01:13:54;;;;;;;;;;;18.50;99.90;;;;;;4594884;19;19919;-31
2022/07/05 01:15:25;;;;;;;;;;;18.40;99.90;;;;;;4593174;19;19915;-31
2022/07/05 01:16:57;;;;;;;;;;;18.50;99.90;;;;;;4593288;19;19918;-31
2022/07/05 01:18:28;;;;;;;;;;;18.40;99.90;;;;;;4594055;19;19919;-32
2022/07/05 01:19:58;;;;;;;;;;;18.40;99.90;;;;;;4594621;19;19919;-33
2022/07/05 01:21:29;;;;;;;;;;;18.40;99.90;;;;;;4594059;19;19928;-31
2022/07/05 01:23:02;;;;;;;;;;;18.40;99.90;;;;;;4594296;19;19919;-31
2022/07/05 01:24:33;;;;;;;;;;;18.40;99.90;;;;;;4592251;19;19914;-31
2022/07/05 01:26:04;;;;;;;;;;;18.40;99.90;;;;;;4593771;19;19921;-31
2022/07/05 01:27:34;;;;;;;;;;;18.40;99.90;;;;;;4594056;19;20329;-31
2022/07/05 01:29:06;;;;;;;;;;;18.40;99.90;;;;;;4594271;19;19927;-31
2022/07/05 01:30:37;;;;;;;;;;;18.40;99.90;;;;;;4592813;19;20269;-31
2022/07/05 01:32:08;;;;;;;;;;;18.30;99.90;;;;;;4592933;19;19918;-31
2022/07/05 01:33:39;;;;;;;;;;;18.30;99.90;;;;;;4593549;19;19915;-30
2022/07/05 01:35:12;;;;;;;;;;;18.30;99.90;;;;;;4593900;19;19919;-31
2022/07/05 01:36:43;;;;;;;;;;;18.30;99.90;;;;;;4593200;19;20290;-31
2022/07/05 01:38:16;;;;;;;;;;;18.30;99.90;;;;;;4592476;19;19915;-31
2022/07/05 01:39:47;;;;;;;;;;;18.30;99.90;;;;;;4593370;19;19938;-31
2022/07/05 01:41:18;;;;;;;;;;;18.30;99.90;;;;;;4594251;19;21358;-31
2022/07/05 01:42:49;;;;;;;;;;;18.20;99.90;;;;;;4594286;19;19942;-32
2022/07/05 01:44:20;;;;;;;;;;;18.30;99.90;;;;;;4591729;19;19923;-31
2022/07/05 01:45:51;;;;;;;;;;;18.30;99.90;;;;;;4592711;19;19932;-31
2022/07/05 01:47:22;;;;;;;;;;;18.20;99.90;;;;;;4593803;19;19914;-31
2022/07/05 01:48:54;;;;;;;;;;;18.20;99.90;;;;;;4593765;19;19932;-31
2022/07/05 01:50:24;;;;;;;;;;;18.20;99.90;;;;;;4592465;19;19975;-31
2022/07/05 01:51:58;;;;;;;;;;;18.20;99.90;;;;;;4591469;19;19915;-31
2022/07/05 01:53:29;;;;;;;;;;;18.20;99.90;;;;;;4592144;19;19923;-31
2022/07/05 01:55:01;;;;;;;;;;;18.20;99.90;;;;;;4593210;19;19918;-31
2022/07/05 01:56:32;;;;;;;;;;;18.20;99.90;;;;;;4593455;19;19919;-30
2022/07/05 01:58:03;;;;;;;;;;;18.20;99.90;;;;;;4594016;19;20388;-31
2022/07/05 01:59:35;;;;;;;;;;;18.10;99.90;;;;;;4594045;19;19930;-31
2022/07/05 02:01:06;;;;;;;;;;;18.10;99.90;;;;;;4593172;19;19915;-31
2022/07/05 02:02:39;;;;;;;;;;;18.20;99.90;;;;;;4593263;19;19921;-31
2022/07/05 02:04:10;;;;;;;;;;;18.20;99.90;;;;;;4589920;19;20004;-30
2022/07/05 02:05:41;;;;;;;;;;;18.20;99.90;;;;;;4591608;19;19915;-31
2022/07/05 02:07:12;;;;;;;;;;;18.20;99.90;;;;;;4590916;19;20365;-31
2022/07/05 02:08:43;;;;;;;;;;;18.10;99.90;;;;;;4590947;19;19923;-32
2022/07/05 02:10:14;;;;;;;;;;;18.10;99.90;;;;;;4591208;19;19926;-31
2022/07/05 02:11:45;;;;;;;;;;;18.10;99.90;;;;;;4591283;19;20333;-31
2022/07/05 02:13:16;;;;;;;;;;;18.10;99.90;;;;;;4591090;19;19922;-31
2022/07/05 02:14:47;;;;;;;;;;;18.10;99.90;;;;;;4591081;19;19918;-31
2022/07/05 02:16:21;;;;;;;;;;;18.10;99.90;;;;;;4590945;19;19911;-31
2022/07/05 02:17:52;;;;;;;;;;;18.10;99.90;;;;;;4590768;19;19948;-30
2022/07/05 02:19:23;;;;;;;;;;;18.00;99.90;;;;;;4590666;19;19946;-31
2022/07/05 02:20:54;;;;;;;;;;;18.00;99.90;;;;;;4591100;19;19923;-33
2022/07/05 02:22:25;;;;;;;;;;;18.00;99.90;;;;;;4591172;19;20310;-31
2022/07/05 02:23:56;;;;;;;;;;;18.00;99.90;;;;;;4590179;19;20366;-31
2022/07/05 02:25:27;;;;;;;;;;;18.00;99.90;;;;;;4590747;19;19944;-31
2022/07/05 02:26:59;;;;;;;;;;;18.00;99.90;;;;;;4591030;19;19919;-31
2022/07/05 02:28:30;;;;;;;;;;;18.00;99.90;;;;;;4590889;19;20424;-31
2022/07/05 02:30:01;;;;;;;;;;;18.00;99.90;;;;;;4590678;19;19922;-31
2022/07/05 02:31:33;;;;;;;;;;;18.00;99.90;;;;;;4590579;19;20359;-31
2022/07/05 02:33:03;;;;;;;;;;;18.00;99.90;;;;;;4591103;19;19918;-31
2022/07/05 02:34:35;;;;;;;;;;;18.00;99.90;;;;;;4590199;19;19914;-32
2022/07/05 02:36:07;;;;;;;;;;;18.00;99.90;;;;;;4591689;19;19919;-33
2022/07/05 02:37:41;;;;;;;;;;;18.00;99.90;;;;;;4591887;19;19945;-31
2022/07/05 02:39:12;;;;;;;;;;;18.00;99.90;;;;;;4592293;19;19967;-32
2022/07/05 02:40:43;;;;;;;;;;;18.00;99.90;;;;;;4592348;19;20263;-32
2022/07/05 02:42:14;;;;;;;;;;;18.00;99.90;;;;;;4591519;19;19936;-31
2022/07/05 02:43:45;;;;;;;;;;;18.00;99.90;;;;;;4592046;19;19918;-31
2022/07/05 02:45:16;;;;;;;;;;;18.00;99.90;;;;;;4591773;19;19919;-31
2022/07/05 02:46:47;;;;;;;;;;;18.00;99.90;;;;;;4591691;19;19922;-31
2022/07/05 02:48:18;;;;;;;;;;;18.00;99.90;;;;;;4592658;19;19919;-32
2022/07/05 02:49:49;;;;;;;;;;;18.00;99.90;;;;;;4592704;19;19982;-31
2022/07/05 02:51:20;;;;;;;;;;;18.00;99.90;;;;;;4592538;19;19918;-33
2022/07/05 02:52:51;;;;;;;;;;;17.90;99.90;;;;;;4590623;19;19982;-31
2022/07/05 02:54:22;;;;;;;;;;;17.90;99.90;;;;;;4592310;19;19926;-31
2022/07/05 02:55:53;;;;;;;;;;;17.90;99.90;;;;;;4592540;19;19931;-31
2022/07/05 02:57:24;;;;;;;;;;;17.90;99.90;;;;;;4592096;19;20433;-31
2022/07/05 02:58:55;;;;;;;;;;;17.90;99.90;;;;;;4592226;19;19923;-31
2022/07/05 03:00:26;;;;;;;;;;;17.90;99.90;;;;;;4590878;19;19915;-32
2022/07/05 03:01:57;;;;;;;;;;;17.90;99.90;;;;;;4591670;19;20329;-30
2022/07/05 03:03:28;;;;;;;;;;;18.00;99.90;;;;;;4591836;19;19926;-31
2022/07/05 03:05:00;;;;;;;;;;;17.90;99.90;;;;;;4590099;19;19918;-31
2022/07/05 03:06:31;;;;;;;;;;;17.90;99.90;;;;;;4592069;19;19930;-31
2022/07/05 03:08:02;;;;;;;;;;;18.00;99.90;;;;;;4592280;19;19919;-31
2022/07/05 03:09:33;;;;;;;;;;;18.00;99.90;;;;;;4591811;19;19922;-31
2022/07/05 03:11:04;;;;;;;;;;;17.90;99.90;;;;;;4591917;19;20384;-31
2022/07/05 03:12:35;;;;;;;;;;;18.00;99.90;;;;;;4592105;19;19931;-32
2022/07/05 03:14:06;;;;;;;;;;;18.00;99.90;;;;;;4591781;19;19911;-31
2022/07/05 03:15:37;;;;;;;;;;;18.00;99.90;;;;;;4591897;19;19919;-33
2022/07/05 03:17:08;;;;;;;;;;;18.00;99.90;;;;;;4592182;19;20001;-31
2022/07/05 03:18:39;;;;;;;;;;;17.90;99.90;;;;;;4592332;19;19915;-31
2022/07/05 03:20:10;;;;;;;;;;;17.90;99.90;;;;;;4591465;19;19915;-32
2022/07/05 03:21:42;;;;;;;;;;;18.00;99.90;;;;;;4591860;19;19963;-30
2022/07/05 03:23:13;;;;;;;;;;;18.00;99.90;;;;;;4592040;19;19915;-31
2022/07/05 03:24:44;;;;;;;;;;;18.00;99.90;;;;;;4591225;19;19974;-31
2022/07/05 03:26:15;;;;;;;;;;;17.90;99.90;;;;;;4590279;19;19939;-31
2022/07/05 03:27:46;;;;;;;;;;;17.90;99.90;;;;;;4591208;19;19915;-31
2022/07/05 03:29:17;;;;;;;;;;;17.90;99.90;;;;;;4591674;19;20321;-31
2022/07/05 03:30:48;;;;;;;;;;;17.90;99.90;;;;;;4591295;19;19919;-31
2022/07/05 03:32:19;;;;;;;;;;;18.00;99.90;;;;;;4591538;19;20322;-30
2022/07/05 03:33:50;;;;;;;;;;;18.00;99.90;;;;;;4592140;19;19922;-32
2022/07/05 03:35:21;;;;;;;;;;;18.00;99.90;;;;;;4591622;19;19919;-31
2022/07/05 03:36:52;;;;;;;;;;;17.90;99.90;;;;;;4591153;19;19918;-31
2022/07/05 03:38:23;;;;;;;;;;;17.90;99.90;;;;;;4591257;19;20343;-31
2022/07/05 03:39:54;;;;;;;;;;;18.00;99.90;;;;;;4591784;19;20329;-31
2022/07/05 03:41:25;;;;;;;;;;;18.00;99.90;;;;;;4591092;19;19915;-32
2022/07/05 03:42:56;;;;;;;;;;;18.00;99.90;;;;;;4591113;19;20388;-31
2022/07/05 03:44:27;;;;;;;;;;;18.00;99.90;;;;;;4590709;19;19914;-31
2022/07/05 03:45:59;;;;;;;;;;;18.00;99.90;;;;;;4592337;19;20265;-31
2022/07/05 03:47:30;;;;;;;;;;;17.90;99.90;;;;;;4591380;19;19911;-30
2022/07/05 03:49:01;;;;;;;;;;;18.00;99.90;;;;;;4591307;19;19919;-30
2022/07/05 03:50:32;;;;;;;;;;;18.00;99.90;;;;;;4591237;19;20329;-31
2022/07/05 03:52:03;;;;;;;;;;;18.00;99.90;;;;;;4590836;19;19919;-31
2022/07/05 03:53:34;;;;;;;;;;;18.00;99.90;;;;;;4593005;19;19919;-31
2022/07/05 03:55:06;;;;;;;;;;;18.00;99.90;;;;;;4592916;19;19911;-31
2022/07/05 03:56:37;;;;;;;;;;;18.10;99.90;;;;;;4592920;19;19918;-31
2022/07/05 03:58:08;;;;;;;;;;;18.00;99.90;;;;;;4593041;19;19914;-31
2022/07/05 03:59:39;;;;;;;;;;;18.00;99.90;;;;;;4592880;19;19952;-31
2022/07/05 04:01:10;;;;;;;;;;;18.00;99.90;;;;;;4591699;19;19953;-31
2022/07/05 04:02:41;;;;;;;;;;;18.10;99.90;;;;;;4592871;19;19915;-32
2022/07/05 04:04:12;;;;;;;;;;;18.10;99.90;;;;;;4592194;19;19914;-31
2022/07/05 04:05:43;;;;;;;;;;;18.10;99.90;;;;;;4593357;19;19926;-31
2022/07/05 04:07:14;;;;;;;;;;;18.10;99.90;;;;;;4591311;19;19919;-30
2022/07/05 04:08:45;;;;;;;;;;;18.10;99.90;;;;;;4591158;19;19923;-31
2022/07/05 04:10:16;;;;;;;;;;;18.10;99.90;;;;;;4590646;19;19918;-31
2022/07/05 04:11:47;;;;;;;;;;;18.10;99.90;;;;;;4590977;19;19919;-31
2022/07/05 04:13:18;;;;;;;;;;;18.10;99.90;;;;;;4589748;19;19926;-31
2022/07/05 04:14:49;;;;;;;;;;;18.10;99.90;;;;;;4590783;19;20349;-30
2022/07/05 04:16:21;;;;;;;;;;;18.10;99.90;;;;;;4593736;19;19978;-32
2022/07/05 04:17:53;;;;;;;;;;;18.10;99.90;;;;;;4593388;19;19941;-31
2022/07/05 04:19:24;;;;;;;;;;;18.10;99.90;;;;;;4595947;19;19922;-32
2022/07/05 04:20:55;;;;;;;;;;;18.10;99.90;;;;;;4596364;19;19921;-31
2022/07/05 04:22:26;;;;;;;;;;;18.10;99.90;;;;;;4595415;19;19927;-31
2022/07/05 04:23:57;;;;;;;;;;;18.10;99.90;;;;;;4594418;19;19919;-31
2022/07/05 04:25:28;;;;;;;;;;;18.20;99.90;;;;;;4595009;19;19978;-31
2022/07/05 04:26:59;;;;;;;;;;;18.20;99.90;;;;;;4594132;19;20337;-31
2022/07/05 04:28:30;;;;;;;;;;;18.20;99.90;;;;;;4593695;19;19922;-31
2022/07/05 04:30:01;;;;;;;;;;;18.20;99.90;;;;;;4593428;19;19920;-32
2022/07/05 04:31:33;;;;;;;;;;;18.20;99.90;;;;;;4593479;19;20319;-31
2022/07/05 04:33:04;;;;;;;;;;;18.20;99.90;;;;;;4595930;19;19974;-31
2022/07/05 04:34:35;;;;;;;;;;;18.30;99.90;;;;;;4595624;19;19926;-31
2022/07/05 04:36:06;;;;;;;;;;;18.30;99.90;;;;;;4595037;19;19935;-31
2022/07/05 04:37:37;;;;;;;;;;;18.30;99.90;;;;;;4594814;19;19934;-31
2022/07/05 04:39:08;;;;;;;;;;;18.30;99.90;;;;;;4594362;19;19922;-31
2022/07/05 04:40:40;;;;;;;;;;;18.30;99.90;;;;;;4592755;19;19911;-31
2022/07/05 04:42:11;;;;;;;;;;;18.30;99.90;;;;;;4593519;19;19923;-29
2022/07/05 04:43:42;;;;;;;;;;;18.30;99.90;;;;;;4592807;19;20448;-31
2022/07/05 04:45:13;;;;;;;;;;;18.40;99.90;;;;;;4593251;19;19919;-32
2022/07/05 04:46:44;;;;;;;;;;;18.30;99.90;;;;;;4594525;19;20004;-31
2022/07/05 04:48:15;;;;;;;;;;;18.30;99.90;;;;;;4595263;19;19936;-31
2022/07/05 04:49:46;;;;;;;;;;;18.40;99.90;;;;;;4594919;19;20265;-32
2022/07/05 04:51:17;;;;;;;;;;;18.40;99.90;;;;;;4594647;19;19923;-31
2022/07/05 04:52:48;;;;;;;;;;;18.40;99.90;;;;;;4592704;19;19926;-31
2022/07/05 04:54:19;;;;;;;;;;;18.40;99.90;;;;;;4593887;19;19933;-31
2022/07/05 04:55:50;;;;;;;;;;;18.40;99.90;;;;;;4592255;19;19911;-31
2022/07/05 04:57:21;;;;;;;;;;;18.40;99.90;;;;;;4591745;19;20268;-31
2022/07/05 04:58:52;;;;;;;;;;;18.40;99.90;;;;;;4592654;19;19938;-31
2022/07/05 05:00:23;;;;;;;;;;;18.50;99.90;;;;;;4595342;19;19919;-31
2022/07/05 05:01:54;;;;;;;;;;;18.50;99.90;;;;;;4595075;19;20807;-31
2022/07/05 05:03:25;;;;;;;;;;;18.50;99.90;;;;;;4594891;19;19919;-33
2022/07/05 05:04:56;;;;;;;;;;;18.50;99.90;;;;;;4592800;19;19927;-31
2022/07/05 05:06:27;;;;;;;;;;;18.50;99.90;;;;;;4593823;19;20336;-31
2022/07/05 05:07:58;;;;;;;;;;;18.50;99.90;;;;;;4593717;19;19931;-32
2022/07/05 05:09:29;;;;;;;;;;;18.50;99.90;;;;;;4593295;19;19919;-31
2022/07/05 05:11:00;;;;;;;;;;;18.50;99.90;;;;;;4592818;19;19936;-31
2022/07/05 05:12:31;;;;;;;;;;;18.50;99.90;;;;;;4592343;19;20241;-31
2022/07/05 05:14:02;;;;;;;;;;;18.50;99.90;;;;;;4590744;19;19982;-30
2022/07/05 05:15:33;;;;;;;;;;;18.50;99.90;;;;;;4592307;19;20372;-31
2022/07/05 05:17:04;;;;;;;;;;;18.50;99.90;;;;;;4592529;19;20329;-30
2022/07/05 05:18:35;;;;;;;;;;;18.50;99.90;;;;;;4592441;19;19918;-31
2022/07/05 05:20:07;;;;;;;;;;;18.50;99.90;;;;;;4593787;19;19935;-31
2022/07/05 05:21:38;;;;;;;;;;;18.50;99.90;;;;;;4594408;19;19956;-31
2022/07/05 05:23:09;;;;;;;;;;;18.60;99.90;;;;;;4594248;19;20268;-31
2022/07/05 05:24:39;;;;;;;;;;;18.60;99.90;;;;;;4592586;19;19915;-31
2022/07/05 05:26:11;;;;;;;;;;;18.60;99.90;;;;;;4594754;19;19914;-31
2022/07/05 05:27:42;;;;;;;;;;;18.60;99.90;;;;;;4592799;19;19931;-31
2022/07/05 05:29:14;;;;;;;;;;;18.60;99.90;;;;;;4593306;19;19922;-31
2022/07/05 05:30:45;;;;;;;;;;;18.60;99.90;;;;;;4592836;19;19925;-31
2022/07/05 05:32:16;;;;;;;;;;;18.60;99.90;;;;;;4592714;19;19930;-31
2022/07/05 05:33:47;;;;;;;;;;;18.60;99.90;;;;;;4591570;19;20258;-31
2022/07/05 05:35:20;;;;;;;;;;;18.70;99.90;;;;;;4591354;19;19911;-32
2022/07/05 05:36:51;;;;;;;;;;;18.60;99.90;;;;;;4591662;19;19929;-31
2022/07/05 05:38:22;;;;;;;;;;;18.60;99.90;;;;;;4591003;19;20348;-31
2022/07/05 05:39:53;;;;;;;;;;;18.70;99.90;;;;;;4593934;19;19918;-31
2022/07/05 05:41:24;;;;;;;;;;;18.70;99.90;;;;;;4592910;19;20254;-31
2022/07/05 05:42:56;;;;;;;;;;;18.70;99.90;;;;;;4592736;19;19922;-31
2022/07/05 05:44:27;;;;;;;;;;;18.70;99.90;;;;;;4592214;19;19927;-31
2022/07/05 05:45:58;;;;;;;;;;;18.80;99.90;;;;;;4593579;19;20328;-31
2022/07/05 05:47:29;;;;;;;;;;;18.80;99.90;;;;;;4593538;19;19914;-31
2022/07/05 05:49:00;;;;;;;;;;;18.80;99.90;;;;;;4593353;19;20341;-31
2022/07/05 05:50:35;;;;;;;;;;;18.80;99.90;;;;;;4592298;19;19914;-31
2022/07/05 05:52:06;;;;;;;;;;;18.80;99.90;;;;;;4592481;19;19929;-30
2022/07/05 05:53:37;;;;;;;;;;;18.80;99.90;;;;;;4592588;19;20333;-32
2022/07/05 05:55:08;;;;;;;;;;;18.80;99.90;;;;;;4593171;19;19931;-31
2022/07/05 05:56:39;;;;;;;;;;;18.80;99.90;;;;;;4593685;19;20455;-31
2022/07/05 05:58:13;;;;;;;;;;;18.80;99.90;;;;;;4593255;19;19936;-30
2022/07/05 05:59:44;;;;;;;;;;;18.80;99.90;;;;;;4591751;19;20341;-32
2022/07/05 06:01:15;;;;;;;;;;;18.80;99.90;;;;;;4593340;19;19919;-31
2022/07/05 06:02:47;;;;;;;;;;;18.80;99.90;;;;;;4590950;19;20337;-31
2022/07/05 06:04:18;;;;;;;;;;;18.90;99.90;;;;;;4590648;19;19919;-34
2022/07/05 06:05:49;;;;;;;;;;;18.90;99.90;;;;;;4591487;19;19923;-31
2022/07/05 06:07:20;;;;;;;;;;;18.90;99.90;;;;;;4594044;19;19922;-31
2022/07/05 06:08:51;;;;;;;;;;;18.90;99.90;;;;;;4591950;19;20282;-31
2022/07/05 06:10:22;;;;;;;;;;;18.90;99.90;;;;;;4592571;19;19975;-30
2022/07/05 06:11:53;;;;;;;;;;;18.90;99.90;;;;;;4593726;19;20387;-32
2022/07/05 06:13:24;;;;;;;;;;;18.90;99.90;;;;;;4592331;19;20222;-31
2022/07/05 06:14:55;;;;;;;;;;;18.90;99.90;;;;;;4592481;19;19918;-32
2022/07/05 06:16:26;;;;;;;;;;;19.00;99.90;;;;;;4591890;19;19923;-30
2022/07/05 06:17:57;;;;;;;;;;;19.00;99.90;;;;;;4591991;19;19926;-30
2022/07/05 06:19:28;;;;;;;;;;;19.00;99.90;;;;;;4592474;19;19919;-31
2022/07/05 06:20:59;;;;;;;;;;;19.00;99.90;;;;;;4592344;19;19947;-31
2022/07/05 06:22:30;;;;;;;;;;;19.00;99.90;;;;;;4591087;19;19926;-31
2022/07/05 06:24:01;;;;;;;;;;;19.00;99.90;;;;;;4593370;19;19998;-31
2022/07/05 06:25:32;;;;;;;;;;;18.90;99.90;;;;;;4592706;19;19919;-32
2022/07/05 06:27:04;;;;;;;;;;;19.00;99.90;;;;;;4592347;19;19919;-32
2022/07/05 06:28:35;;;;;;;;;;;19.00;99.90;;;;;;4592855;19;19957;-31
2022/07/05 06:30:06;;;;;;;;;;;18.90;99.90;;;;;;4593334;19;19960;-31
2022/07/05 06:31:37;;;;;;;;;;;19.00;99.90;;;;;;4592588;19;19982;-30
2022/07/05 06:33:08;;;;;;;;;;;19.00;99.90;;;;;;4592644;19;20290;-30
2022/07/05 06:34:39;;;;;;;;;;;19.00;99.90;;;;;;4593005;19;19922;-31
2022/07/05 06:36:10;;;;;;;;;;;19.00;99.90;;;;;;4591161;19;19934;-32
2022/07/05 06:37:44;;;;;;;;;;;19.10;99.90;;;;;;4591943;19;19943;-32
2022/07/05 06:39:15;;;;;;;;;;;19.10;99.90;;;;;;4592622;19;19922;-32
2022/07/05 06:40:46;;;;;;;;;;;19.10;99.90;;;;;;4592558;19;19911;-32
2022/07/05 06:42:17;;;;;;;;;;;19.10;99.90;;;;;;4591944;19;20329;-32
2022/07/05 06:43:48;;;;;;;;;;;19.10;99.90;;;;;;4591705;19;19971;-30
2022/07/05 06:45:19;;;;;;;;;;;19.20;99.90;;;;;;4592589;19;19956;-32
2022/07/05 06:46:50;;;;;;;;;;;19.20;99.90;;;;;;4593096;19;19915;-31
2022/07/05 06:48:24;;;;;;;;;;;19.20;99.90;;;;;;4590913;19;20367;-31
2022/07/05 06:49:57;;;;;;;;;;;19.20;99.90;;;;;;4591574;19;19926;-31
2022/07/05 06:51:28;;;;;;;;;;;19.30;99.90;;;;;;4592457;19;19914;-31
2022/07/05 06:52:59;;;;;;;;;;;19.30;99.90;;;;;;4591090;19;19926;-31
2022/07/05 06:54:30;;;;;;;;;;;19.30;99.90;;;;;;4592031;19;19919;-31
2022/07/05 06:56:01;;;;;;;;;;;19.40;99.90;;;;;;4593781;19;19926;-29
2022/07/05 06:57:32;;;;;;;;;;;19.40;99.90;;;;;;4594121;19;19911;-30
2022/07/05 06:59:03;;;;;;;;;;;19.40;99.90;;;;;;4590522;19;20348;-31
2022/07/05 07:00:34;;;;;;;;;;;19.40;99.90;;;;;;4593382;19;19915;-30
2022/07/05 07:02:05;;;;;;;;;;;19.40;99.90;;;;;;4594330;19;19952;-31
2022/07/05 07:03:36;;;;;;;;;;;19.50;99.90;;;;;;4594324;19;19915;-30
2022/07/05 07:05:08;;;;;;;;;;;19.40;99.90;;;;;;4592348;19;19982;-32
2022/07/05 07:06:39;;;;;;;;;;;19.50;99.90;;;;;;4592766;19;19919;-31
2022/07/05 07:10:00;;;;;;;;;;;19.50;99.90;;;;;;4594070;19;19938;-31
2022/07/05 07:11:30;;;;;;;;;;;19.50;99.90;;;;;;4591262;19;19914;-32
2022/07/05 07:13:02;;;;;;;;;;;19.50;99.90;;;;;;4591123;19;19994;-32
2022/07/05 07:14:32;;;;;;;;;;;19.50;99.90;;;;;;4592099;19;19921;-31
2022/07/05 07:16:04;;;;;;;;;;;19.50;99.90;;;;;;4592010;19;19974;-31
2022/07/05 07:17:35;;;;;;;;;;;19.50;99.90;;;;;;4591616;19;19926;-31
2022/07/05 07:19:06;;;;;;;;;;;19.50;99.90;;;;;;4591713;19;19922;-30
2022/07/05 07:20:37;;;;;;;;;;;19.40;99.90;;;;;;4591689;19;19939;-30
2022/07/05 07:22:08;;;;;;;;;;;19.50;99.90;;;;;;4591206;19;20333;-32
2022/07/05 07:23:39;;;;;;;;;;;19.40;99.90;;;;;;4591670;19;19918;-31
2022/07/05 07:25:11;;;;;;;;;;;19.50;99.90;;;;;;4590891;19;19981;-32
2022/07/05 07:28:42;;;;;;;;;;;19.50;99.90;;;;;;4589706;19;19926;-31
2022/07/05 07:30:14;;;;;;;;;;;19.50;99.90;;;;;;4589395;19;19921;-31
2022/07/05 07:31:45;;;;;;;;;;;19.50;99.90;;;;;;4589168;19;19947;-31
2022/07/05 07:33:15;;;;;;;;;;;19.50;99.90;;;;;;4589621;19;20317;-31
2022/07/05 07:34:47;;;;;;;;;;;19.50;99.90;;;;;;4589361;19;20321;-31
2022/07/05 07:36:18;;;;;;;;;;;19.60;99.90;;;;;;4589071;19;19926;-30
2022/07/05 07:37:48;;;;;;;;;;;19.60;99.90;;;;;;4589195;19;20295;-31
2022/07/05 07:39:19;;;;;;;;;;;19.60;99.90;;;;;;4589103;19;19918;-31
2022/07/05 07:40:51;;;;;;;;;;;19.60;99.90;;;;;;4589215;19;19911;-31
2022/07/05 07:42:22;;;;;;;;;;;19.50;99.90;;;;;;4589186;19;19922;-32
2022/07/05 07:43:52;;;;;;;;;;;19.60;99.90;;;;;;4588918;19;20337;-31
2022/07/05 07:45:23;;;;;;;;;;;19.60;99.90;;;;;;4589394;19;19914;-31
2022/07/05 07:46:55;;;;;;;;;;;19.60;99.90;;;;;;4588790;19;19935;-31
2022/07/05 07:48:25;;;;;;;;;;;19.60;99.90;;;;;;4588871;19;19919;-32
2022/07/05 07:49:56;;;;;;;;;;;19.70;99.90;;;;;;4588978;19;19929;-31
2022/07/05 07:51:27;;;;;;;;;;;19.70;99.90;;;;;;4587975;19;19907;-31
2022/07/05 07:52:58;;;;;;;;;;;19.70;99.90;;;;;;4587504;19;19922;-32
2022/07/05 07:54:29;;;;;;;;;;;19.70;99.90;;;;;;4589235;19;19939;-31
2022/07/05 07:56:00;;;;;;;;;;;19.70;99.90;;;;;;4588931;19;20371;-31
2022/07/05 07:57:31;;;;;;;;;;;19.80;99.90;;;;;;4588938;19;20277;-32
2022/07/05 07:59:02;;;;;;;;;;;19.70;99.90;;;;;;4588682;19;19919;-31
2022/07/05 08:00:33;;;;;;;;;;;19.70;99.90;;;;;;4589217;19;20325;-30
2022/07/05 08:02:04;;;;;;;;;;;19.70;99.90;;;;;;4589418;19;19976;-31
2022/07/05 08:03:35;;;;;;;;;;;19.70;99.90;;;;;;4588765;19;19918;-31
2022/07/05 08:05:09;;;;;;;;;;;19.80;99.90;;;;;;4587934;19;19939;-31
2022/07/05 08:06:40;;;;;;;;;;;19.80;99.90;;;;;;4590490;19;19918;-31
2022/07/05 08:08:11;;;;;;;;;;;19.80;99.90;;;;;;4591513;19;19919;-31
2022/07/05 08:09:42;;;;;;;;;;;19.80;99.90;;;;;;4590860;19;19914;-31
2022/07/05 08:11:13;;;;;;;;;;;19.80;99.90;;;;;;4591140;19;19926;-31
2022/07/05 08:12:44;;;;;;;;;;;19.70;99.90;;;;;;4591318;19;20260;-31
2022/07/05 08:14:16;;;;;;;;;;;19.80;99.90;;;;;;4591581;19;19915;-31
2022/07/05 08:15:47;;;;;;;;;;;19.80;99.90;;;;;;4590836;19;19919;-31
2022/07/05 08:17:20;;;;;;;;;;;19.80;99.90;;;;;;4591071;19;19994;-31
2022/07/05 08:22:35;;;;;;;;;;;19.80;99.90;;;;;;4588379;19;19999;-31
2022/07/05 08:24:10;;;;;;;;;;;19.80;99.90;;;;;;4588117;19;19911;-31
2022/07/05 08:25:40;;;;;;;;;;;19.90;99.90;;;;;;4588278;19;20340;-31
2022/07/05 08:27:11;;;;;;;;;;;19.90;99.90;;;;;;4588548;19;19982;-31
2022/07/05 08:28:43;;;;;;;;;;;19.90;99.90;;;;;;4588219;19;19974;-31
2022/07/05 08:30:16;;;;;;;;;;;19.90;99.90;;;;;;4587461;19;19948;-31
2022/07/05 08:31:47;;;;;;;;;;;19.90;99.90;;;;;;4588542;19;19911;-32
2022/07/05 08:33:18;;;;;;;;;;;20.00;99.90;;;;;;4587955;19;19918;-31
2022/07/05 08:34:49;;;;;;;;;;;20.00;99.90;;;;;;4589452;19;19927;-31
2022/07/05 08:36:21;;;;;;;;;;;20.00;99.90;;;;;;4588970;19;19926;-31
2022/07/05 08:37:52;;;;;;;;;;;20.00;99.90;;;;;;4588325;19;20317;-30
2022/07/05 08:39:23;;;;;;;;;;;20.00;99.90;;;;;;4589307;19;19922;-30
2022/07/05 08:40:54;;;;;;;;;;;20.00;99.90;;;;;;4590092;19;20389;-30
2022/07/05 08:42:25;;;;;;;;;;;20.00;99.90;;;;;;4590106;19;19952;-31
2022/07/05 08:43:57;;;;;;;;;;;20.00;99.90;;;;;;4589403;19;19914;-30
2022/07/05 08:45:28;;;;;;;;;;;20.00;99.90;;;;;;4590283;19;19919;-30
2022/07/05 08:46:59;;;;;;;;;;;20.00;99.90;;;;;;4589776;19;20241;-30
2022/07/05 08:48:30;;;;;;;;;;;20.00;99.90;;;;;;4589914;19;19979;-30
2022/07/05 08:50:01;;;;;;;;;;;20.00;99.90;;;;;;4589619;19;20379;-31
2022/07/05 08:51:32;;;;;;;;;;;20.00;99.90;;;;;;4589516;19;19937;-30
2022/07/05 08:53:04;;;;;;;;;;;20.00;99.90;;;;;;4587760;19;20407;-31
2022/07/05 08:54:35;;;;;;;;;;;20.00;99.90;;;;;;4589784;19;19919;-31
2022/07/05 08:56:06;;;;;;;;;;;20.00;99.90;;;;;;4590000;19;20249;-31
2022/07/05 08:57:38;;;;;;;;;;;20.00;99.90;;;;;;4589352;19;19941;-32
2022/07/05 08:59:09;;;;;;;;;;;20.00;99.90;;;;;;4589041;19;19923;-31